sensor_id;sensor_type;location;lat;lon;timestamp;P1;durP1;ratioP1;P2;durP2;ratioP2
19084;SDS011;9675;51.538;6.728;2023-09-12T00:00:46;9.07;;;4.43;;
19084;SDS011;9675;51.538;6.728;2023-09-12T00:03:17;7.60;;;3.97;;
19084;SDS011;9675;51.538;6.728;2023-09-12T00:05:50;9.33;;;3.97;;
19084;SDS011;9675;51.538;6.728;2023-09-12T00:08:18;5.67;;;4.20;;
19084;SDS011;9675;51.538;6.728;2023-09-12T00:10:45;15.60;;;7.00;;
19084;SDS011;9675;51.538;6.728;2023-09-12T00:13:12;12.67;;;5.17;;
19084;SDS011;9675;51.538;6.728;2023-09-12T00:15:39;9.87;;;4.57;;
19084;SDS011;9675;51.538;6.728;2023-09-12T00:18:06;13.17;;;6.20;;
19084;SDS011;9675;51.538;6.728;2023-09-12T00:20:34;7.93;;;4.60;;
19084;SDS011;9675;51.538;6.728;2023-09-12T00:23:02;11.93;;;6.70;;
19084;SDS011;9675;51.538;6.728;2023-09-12T00:25:30;17.17;;;8.13;;
19084;SDS011;9675;51.538;6.728;2023-09-12T00:27:57;11.73;;;5.20;;
19084;SDS011;9675;51.538;6.728;2023-09-12T00:30:24;10.20;;;4.87;;
19084;SDS011;9675;51.538;6.728;2023-09-12T00:32:51;9.20;;;5.93;;
19084;SDS011;9675;51.538;6.728;2023-09-12T00:35:18;8.30;;;4.93;;
19084;SDS011;9675;51.538;6.728;2023-09-12T00:37:46;11.87;;;5.00;;
19084;SDS011;9675;51.538;6.728;2023-09-12T00:40:13;10.47;;;4.30;;
19084;SDS011;9675;51.538;6.728;2023-09-12T00:42:40;11.50;;;6.50;;
19084;SDS011;9675;51.538;6.728;2023-09-12T00:45:07;14.60;;;4.77;;
19084;SDS011;9675;51.538;6.728;2023-09-12T00:47:35;8.93;;;4.70;;
19084;SDS011;9675;51.538;6.728;2023-09-12T00:50:03;10.07;;;5.13;;
19084;SDS011;9675;51.538;6.728;2023-09-12T00:52:33;9.47;;;4.07;;
19084;SDS011;9675;51.538;6.728;2023-09-12T00:55:06;6.57;;;4.43;;
19084;SDS011;9675;51.538;6.728;2023-09-12T00:57:33;6.37;;;4.20;;
19084;SDS011;9675;51.538;6.728;2023-09-12T01:00:02;7.93;;;4.70;;
19084;SDS011;9675;51.538;6.728;2023-09-12T01:02:37;7.23;;;4.10;;
19084;SDS011;9675;51.538;6.728;2023-09-12T01:05:05;10.17;;;3.93;;
19084;SDS011;9675;51.538;6.728;2023-09-12T01:07:34;9.20;;;4.27;;
19084;SDS011;9675;51.538;6.728;2023-09-12T01:10:02;6.77;;;3.27;;
19084;SDS011;9675;51.538;6.728;2023-09-12T01:12:32;8.23;;;4.10;;
19084;SDS011;9675;51.538;6.728;2023-09-12T01:14:59;7.83;;;3.70;;
19084;SDS011;9675;51.538;6.728;2023-09-12T01:17:26;7.53;;;3.40;;
19084;SDS011;9675;51.538;6.728;2023-09-12T01:19:54;8.13;;;3.30;;
19084;SDS011;9675;51.538;6.728;2023-09-12T01:22:27;5.57;;;3.53;;
19084;SDS011;9675;51.538;6.728;2023-09-12T01:28:29;4.13;;;3.00;;
19084;SDS011;9675;51.538;6.728;2023-09-12T01:30:59;7.87;;;3.87;;
19084;SDS011;9675;51.538;6.728;2023-09-12T01:33:28;5.87;;;3.27;;
19084;SDS011;9675;51.538;6.728;2023-09-12T01:35:55;8.83;;;3.73;;
19084;SDS011;9675;51.538;6.728;2023-09-12T01:38:22;8.53;;;3.73;;
19084;SDS011;9675;51.538;6.728;2023-09-12T01:40:50;6.77;;;4.17;;
19084;SDS011;9675;51.538;6.728;2023-09-12T01:43:21;9.13;;;4.53;;
19084;SDS011;9675;51.538;6.728;2023-09-12T01:45:54;7.50;;;3.93;;
19084;SDS011;9675;51.538;6.728;2023-09-12T01:48:26;7.00;;;3.30;;
19084;SDS011;9675;51.538;6.728;2023-09-12T01:51:00;11.33;;;6.27;;
19084;SDS011;9675;51.538;6.728;2023-09-12T01:53:30;7.43;;;3.57;;
19084;SDS011;9675;51.538;6.728;2023-09-12T01:55:59;9.87;;;4.60;;
19084;SDS011;9675;51.538;6.728;2023-09-12T01:58:26;12.57;;;4.53;;
19084;SDS011;9675;51.538;6.728;2023-09-12T02:00:56;6.33;;;3.43;;
19084;SDS011;9675;51.538;6.728;2023-09-12T02:03:23;8.13;;;3.70;;
19084;SDS011;9675;51.538;6.728;2023-09-12T02:05:50;7.47;;;3.40;;
19084;SDS011;9675;51.538;6.728;2023-09-12T02:08:17;9.83;;;5.60;;
19084;SDS011;9675;51.538;6.728;2023-09-12T02:10:44;6.77;;;3.80;;
19084;SDS011;9675;51.538;6.728;2023-09-12T02:13:11;10.97;;;4.00;;
19084;SDS011;9675;51.538;6.728;2023-09-12T02:15:38;11.10;;;5.30;;
19084;SDS011;9675;51.538;6.728;2023-09-12T02:18:06;8.63;;;4.17;;
19084;SDS011;9675;51.538;6.728;2023-09-12T02:20:37;11.53;;;5.67;;
19084;SDS011;9675;51.538;6.728;2023-09-12T02:23:06;9.60;;;5.40;;
19084;SDS011;9675;51.538;6.728;2023-09-12T02:25:33;8.73;;;5.40;;
19084;SDS011;9675;51.538;6.728;2023-09-12T02:28:00;8.13;;;4.40;;
19084;SDS011;9675;51.538;6.728;2023-09-12T02:30:28;8.20;;;3.97;;
19084;SDS011;9675;51.538;6.728;2023-09-12T02:32:54;6.77;;;4.03;;
19084;SDS011;9675;51.538;6.728;2023-09-12T02:35:23;6.83;;;4.20;;
19084;SDS011;9675;51.538;6.728;2023-09-12T02:37:50;7.07;;;3.03;;
19084;SDS011;9675;51.538;6.728;2023-09-12T02:40:17;9.27;;;4.10;;
19084;SDS011;9675;51.538;6.728;2023-09-12T02:42:44;7.27;;;4.03;;
19084;SDS011;9675;51.538;6.728;2023-09-12T02:45:11;7.20;;;4.30;;
19084;SDS011;9675;51.538;6.728;2023-09-12T02:47:38;7.20;;;3.97;;
19084;SDS011;9675;51.538;6.728;2023-09-12T02:50:05;5.93;;;3.33;;
19084;SDS011;9675;51.538;6.728;2023-09-12T02:52:34;9.17;;;3.50;;
19084;SDS011;9675;51.538;6.728;2023-09-12T02:55:02;7.30;;;4.10;;
19084;SDS011;9675;51.538;6.728;2023-09-12T02:57:29;9.73;;;4.40;;
19084;SDS011;9675;51.538;6.728;2023-09-12T02:59:56;8.23;;;4.37;;
19084;SDS011;9675;51.538;6.728;2023-09-12T03:02:23;10.40;;;4.03;;
19084;SDS011;9675;51.538;6.728;2023-09-12T03:04:50;7.43;;;4.20;;
19084;SDS011;9675;51.538;6.728;2023-09-12T03:07:17;6.73;;;4.03;;
19084;SDS011;9675;51.538;6.728;2023-09-12T03:09:48;7.20;;;3.83;;
19084;SDS011;9675;51.538;6.728;2023-09-12T03:12:15;8.97;;;4.40;;
19084;SDS011;9675;51.538;6.728;2023-09-12T03:14:43;7.33;;;4.07;;
19084;SDS011;9675;51.538;6.728;2023-09-12T03:17:10;7.80;;;4.40;;
19084;SDS011;9675;51.538;6.728;2023-09-12T03:19:37;8.50;;;4.63;;
19084;SDS011;9675;51.538;6.728;2023-09-12T03:22:04;6.23;;;4.10;;
19084;SDS011;9675;51.538;6.728;2023-09-12T03:24:31;9.33;;;3.40;;
19084;SDS011;9675;51.538;6.728;2023-09-12T03:26:59;10.67;;;4.83;;
19084;SDS011;9675;51.538;6.728;2023-09-12T03:29:26;6.83;;;4.67;;
19084;SDS011;9675;51.538;6.728;2023-09-12T03:31:53;8.63;;;4.73;;
19084;SDS011;9675;51.538;6.728;2023-09-12T03:34:20;6.97;;;4.27;;
19084;SDS011;9675;51.538;6.728;2023-09-12T03:36:47;9.20;;;4.73;;
19084;SDS011;9675;51.538;6.728;2023-09-12T03:39:14;5.80;;;3.70;;
19084;SDS011;9675;51.538;6.728;2023-09-12T03:41:41;9.67;;;6.10;;
19084;SDS011;9675;51.538;6.728;2023-09-12T03:44:09;10.50;;;4.27;;
19084;SDS011;9675;51.538;6.728;2023-09-12T03:46:36;7.07;;;4.87;;
19084;SDS011;9675;51.538;6.728;2023-09-12T03:49:03;10.67;;;4.90;;
19084;SDS011;9675;51.538;6.728;2023-09-12T03:51:30;6.30;;;3.93;;
19084;SDS011;9675;51.538;6.728;2023-09-12T03:53:59;9.43;;;5.40;;
19084;SDS011;9675;51.538;6.728;2023-09-12T03:56:27;8.03;;;4.73;;
19084;SDS011;9675;51.538;6.728;2023-09-12T03:58:54;8.13;;;4.30;;
19084;SDS011;9675;51.538;6.728;2023-09-12T04:01:24;10.60;;;5.13;;
19084;SDS011;9675;51.538;6.728;2023-09-12T04:03:51;6.43;;;4.60;;
19084;SDS011;9675;51.538;6.728;2023-09-12T04:06:18;7.30;;;4.30;;
19084;SDS011;9675;51.538;6.728;2023-09-12T04:08:45;10.70;;;5.43;;
19084;SDS011;9675;51.538;6.728;2023-09-12T04:11:12;9.93;;;6.00;;
19084;SDS011;9675;51.538;6.728;2023-09-12T04:13:39;15.90;;;7.90;;
19084;SDS011;9675;51.538;6.728;2023-09-12T04:16:06;9.17;;;4.97;;
19084;SDS011;9675;51.538;6.728;2023-09-12T04:18:34;6.83;;;4.27;;
19084;SDS011;9675;51.538;6.728;2023-09-12T04:21:01;6.90;;;4.63;;
19084;SDS011;9675;51.538;6.728;2023-09-12T04:23:29;7.73;;;5.13;;
19084;SDS011;9675;51.538;6.728;2023-09-12T04:25:56;9.73;;;4.73;;
19084;SDS011;9675;51.538;6.728;2023-09-12T04:28:25;8.77;;;4.77;;
19084;SDS011;9675;51.538;6.728;2023-09-12T04:31:00;8.07;;;4.53;;
19084;SDS011;9675;51.538;6.728;2023-09-12T04:33:28;7.33;;;4.37;;
19084;SDS011;9675;51.538;6.728;2023-09-12T04:35:59;7.20;;;4.87;;
19084;SDS011;9675;51.538;6.728;2023-09-12T04:38:27;8.90;;;5.13;;
19084;SDS011;9675;51.538;6.728;2023-09-12T04:40:55;7.80;;;4.93;;
19084;SDS011;9675;51.538;6.728;2023-09-12T04:43:27;7.17;;;4.83;;
19084;SDS011;9675;51.538;6.728;2023-09-12T04:45:54;8.67;;;5.70;;
19084;SDS011;9675;51.538;6.728;2023-09-12T04:48:22;9.20;;;5.20;;
19084;SDS011;9675;51.538;6.728;2023-09-12T04:50:49;10.10;;;5.53;;
19084;SDS011;9675;51.538;6.728;2023-09-12T04:53:17;9.90;;;5.33;;
19084;SDS011;9675;51.538;6.728;2023-09-12T04:55:44;7.60;;;4.93;;
19084;SDS011;9675;51.538;6.728;2023-09-12T04:58:11;9.30;;;5.80;;
19084;SDS011;9675;51.538;6.728;2023-09-12T05:00:39;8.97;;;4.90;;
19084;SDS011;9675;51.538;6.728;2023-09-12T05:03:06;10.17;;;5.07;;
19084;SDS011;9675;51.538;6.728;2023-09-12T05:05:34;10.90;;;5.83;;
19084;SDS011;9675;51.538;6.728;2023-09-12T05:08:02;7.60;;;4.77;;
19084;SDS011;9675;51.538;6.728;2023-09-12T05:10:31;12.00;;;5.50;;
19084;SDS011;9675;51.538;6.728;2023-09-12T05:12:58;10.33;;;5.70;;
19084;SDS011;9675;51.538;6.728;2023-09-12T05:15:25;11.07;;;5.73;;
19084;SDS011;9675;51.538;6.728;2023-09-12T05:17:52;8.17;;;4.60;;
19084;SDS011;9675;51.538;6.728;2023-09-12T05:20:19;10.20;;;6.10;;
19084;SDS011;9675;51.538;6.728;2023-09-12T05:22:46;8.03;;;5.03;;
19084;SDS011;9675;51.538;6.728;2023-09-12T05:25:13;8.90;;;5.17;;
19084;SDS011;9675;51.538;6.728;2023-09-12T05:27:42;13.60;;;5.37;;
19084;SDS011;9675;51.538;6.728;2023-09-12T05:30:09;12.60;;;6.80;;
19084;SDS011;9675;51.538;6.728;2023-09-12T05:32:37;6.37;;;4.13;;
19084;SDS011;9675;51.538;6.728;2023-09-12T05:35:04;8.87;;;4.53;;
19084;SDS011;9675;51.538;6.728;2023-09-12T05:37:32;8.60;;;5.77;;
19084;SDS011;9675;51.538;6.728;2023-09-12T05:39:59;11.03;;;6.17;;
19084;SDS011;9675;51.538;6.728;2023-09-12T05:42:25;11.10;;;5.43;;
19084;SDS011;9675;51.538;6.728;2023-09-12T05:44:54;9.50;;;5.00;;
19084;SDS011;9675;51.538;6.728;2023-09-12T05:47:22;7.43;;;3.87;;
19084;SDS011;9675;51.538;6.728;2023-09-12T05:49:49;7.70;;;4.30;;
19084;SDS011;9675;51.538;6.728;2023-09-12T05:52:16;6.43;;;4.20;;
19084;SDS011;9675;51.538;6.728;2023-09-12T05:54:44;10.50;;;6.27;;
19084;SDS011;9675;51.538;6.728;2023-09-12T05:57:11;7.17;;;4.10;;
19084;SDS011;9675;51.538;6.728;2023-09-12T05:59:38;9.60;;;4.80;;
19084;SDS011;9675;51.538;6.728;2023-09-12T06:02:07;12.50;;;5.57;;
19084;SDS011;9675;51.538;6.728;2023-09-12T06:04:34;9.33;;;4.50;;
19084;SDS011;9675;51.538;6.728;2023-09-12T06:07:02;7.37;;;4.17;;
19084;SDS011;9675;51.538;6.728;2023-09-12T06:09:30;11.47;;;4.77;;
19084;SDS011;9675;51.538;6.728;2023-09-12T06:11:57;11.53;;;6.17;;
19084;SDS011;9675;51.538;6.728;2023-09-12T06:14:24;13.03;;;5.77;;
19084;SDS011;9675;51.538;6.728;2023-09-12T06:16:51;14.50;;;6.70;;
19084;SDS011;9675;51.538;6.728;2023-09-12T06:19:20;9.67;;;6.00;;
19084;SDS011;9675;51.538;6.728;2023-09-12T06:21:47;12.50;;;6.63;;
19084;SDS011;9675;51.538;6.728;2023-09-12T06:24:14;11.33;;;4.93;;
19084;SDS011;9675;51.538;6.728;2023-09-12T06:26:42;9.63;;;5.40;;
19084;SDS011;9675;51.538;6.728;2023-09-12T06:29:10;13.77;;;7.67;;
19084;SDS011;9675;51.538;6.728;2023-09-12T06:31:38;14.37;;;7.57;;
19084;SDS011;9675;51.538;6.728;2023-09-12T06:34:06;11.77;;;6.27;;
19084;SDS011;9675;51.538;6.728;2023-09-12T06:36:35;10.83;;;5.57;;
19084;SDS011;9675;51.538;6.728;2023-09-12T06:39:04;13.83;;;7.00;;
19084;SDS011;9675;51.538;6.728;2023-09-12T06:41:31;11.00;;;6.70;;
19084;SDS011;9675;51.538;6.728;2023-09-12T06:43:58;12.17;;;5.63;;
19084;SDS011;9675;51.538;6.728;2023-09-12T06:46:28;11.47;;;5.03;;
19084;SDS011;9675;51.538;6.728;2023-09-12T06:48:55;14.57;;;5.40;;
19084;SDS011;9675;51.538;6.728;2023-09-12T06:51:23;10.87;;;5.83;;
19084;SDS011;9675;51.538;6.728;2023-09-12T06:53:53;11.57;;;5.87;;
19084;SDS011;9675;51.538;6.728;2023-09-12T06:56:20;10.20;;;6.30;;
19084;SDS011;9675;51.538;6.728;2023-09-12T06:58:47;12.40;;;6.27;;
19084;SDS011;9675;51.538;6.728;2023-09-12T07:01:14;12.97;;;6.20;;
19084;SDS011;9675;51.538;6.728;2023-09-12T07:03:41;8.53;;;4.67;;
19084;SDS011;9675;51.538;6.728;2023-09-12T07:06:08;11.77;;;5.83;;
19084;SDS011;9675;51.538;6.728;2023-09-12T07:08:35;11.07;;;6.33;;
19084;SDS011;9675;51.538;6.728;2023-09-12T07:11:04;14.43;;;4.60;;
19084;SDS011;9675;51.538;6.728;2023-09-12T07:13:32;13.07;;;6.20;;
19084;SDS011;9675;51.538;6.728;2023-09-12T07:15:59;7.33;;;4.67;;
19084;SDS011;9675;51.538;6.728;2023-09-12T07:18:28;9.27;;;4.87;;
19084;SDS011;9675;51.538;6.728;2023-09-12T07:20:57;9.17;;;4.90;;
19084;SDS011;9675;51.538;6.728;2023-09-12T07:23:25;9.93;;;5.07;;
19084;SDS011;9675;51.538;6.728;2023-09-12T07:25:53;10.60;;;6.60;;
19084;SDS011;9675;51.538;6.728;2023-09-12T07:28:23;11.33;;;6.40;;
19084;SDS011;9675;51.538;6.728;2023-09-12T07:30:51;11.77;;;7.10;;
19084;SDS011;9675;51.538;6.728;2023-09-12T07:33:18;13.43;;;7.33;;
19084;SDS011;9675;51.538;6.728;2023-09-12T07:35:45;14.57;;;7.90;;
19084;SDS011;9675;51.538;6.728;2023-09-12T07:38:13;14.47;;;8.17;;
19084;SDS011;9675;51.538;6.728;2023-09-12T07:40:41;16.27;;;7.80;;
19084;SDS011;9675;51.538;6.728;2023-09-12T07:43:08;14.50;;;7.77;;
19084;SDS011;9675;51.538;6.728;2023-09-12T07:45:37;16.83;;;8.57;;
19084;SDS011;9675;51.538;6.728;2023-09-12T07:48:05;11.27;;;5.87;;
19084;SDS011;9675;51.538;6.728;2023-09-12T07:50:35;11.07;;;5.80;;
19084;SDS011;9675;51.538;6.728;2023-09-12T07:53:03;14.33;;;6.33;;
19084;SDS011;9675;51.538;6.728;2023-09-12T07:55:30;17.33;;;7.80;;
19084;SDS011;9675;51.538;6.728;2023-09-12T07:58:01;9.27;;;6.10;;
19084;SDS011;9675;51.538;6.728;2023-09-12T08:00:28;20.80;;;9.40;;
19084;SDS011;9675;51.538;6.728;2023-09-12T08:02:56;10.57;;;6.53;;
19084;SDS011;9675;51.538;6.728;2023-09-12T08:05:23;16.97;;;10.53;;
19084;SDS011;9675;51.538;6.728;2023-09-12T08:07:50;12.30;;;6.27;;
19084;SDS011;9675;51.538;6.728;2023-09-12T08:10:17;12.27;;;7.23;;
19084;SDS011;9675;51.538;6.728;2023-09-12T08:12:45;11.40;;;7.20;;
19084;SDS011;9675;51.538;6.728;2023-09-12T08:15:11;13.30;;;7.13;;
19084;SDS011;9675;51.538;6.728;2023-09-12T08:17:38;14.80;;;8.27;;
19084;SDS011;9675;51.538;6.728;2023-09-12T08:20:08;12.97;;;7.33;;
19084;SDS011;9675;51.538;6.728;2023-09-12T08:22:36;16.03;;;8.00;;
19084;SDS011;9675;51.538;6.728;2023-09-12T08:25:03;15.53;;;8.43;;
19084;SDS011;9675;51.538;6.728;2023-09-12T08:27:30;14.67;;;8.00;;
19084;SDS011;9675;51.538;6.728;2023-09-12T08:29:57;15.23;;;8.17;;
19084;SDS011;9675;51.538;6.728;2023-09-12T08:32:24;13.23;;;8.37;;
19084;SDS011;9675;51.538;6.728;2023-09-12T08:34:51;11.50;;;7.80;;
19084;SDS011;9675;51.538;6.728;2023-09-12T08:37:20;15.37;;;8.43;;
19084;SDS011;9675;51.538;6.728;2023-09-12T08:39:47;15.93;;;9.30;;
19084;SDS011;9675;51.538;6.728;2023-09-12T08:42:15;13.87;;;7.93;;
19084;SDS011;9675;51.538;6.728;2023-09-12T08:44:42;18.07;;;8.43;;
19084;SDS011;9675;51.538;6.728;2023-09-12T08:47:10;12.87;;;7.80;;
19084;SDS011;9675;51.538;6.728;2023-09-12T08:49:38;13.23;;;7.73;;
19084;SDS011;9675;51.538;6.728;2023-09-12T08:52:07;13.07;;;8.03;;
19084;SDS011;9675;51.538;6.728;2023-09-12T08:54:36;13.93;;;7.30;;
19084;SDS011;9675;51.538;6.728;2023-09-12T08:57:03;12.40;;;7.33;;
19084;SDS011;9675;51.538;6.728;2023-09-12T08:59:32;17.23;;;7.70;;
19084;SDS011;9675;51.538;6.728;2023-09-12T09:02:00;10.80;;;6.37;;
19084;SDS011;9675;51.538;6.728;2023-09-12T09:04:32;11.07;;;6.77;;
19084;SDS011;9675;51.538;6.728;2023-09-12T09:07:00;18.03;;;8.90;;
19084;SDS011;9675;51.538;6.728;2023-09-12T09:09:29;14.63;;;7.97;;
19084;SDS011;9675;51.538;6.728;2023-09-12T09:11:59;12.57;;;6.60;;
19084;SDS011;9675;51.538;6.728;2023-09-12T09:14:27;14.27;;;7.23;;
19084;SDS011;9675;51.538;6.728;2023-09-12T09:16:55;10.40;;;6.73;;
19084;SDS011;9675;51.538;6.728;2023-09-12T09:19:24;10.50;;;5.63;;
19084;SDS011;9675;51.538;6.728;2023-09-12T09:22:08;9.27;;;5.53;;
19084;SDS011;9675;51.538;6.728;2023-09-12T09:24:35;10.37;;;5.23;;
19084;SDS011;9675;51.538;6.728;2023-09-12T09:27:03;9.63;;;5.73;;
19084;SDS011;9675;51.538;6.728;2023-09-12T09:29:31;9.47;;;4.83;;
19084;SDS011;9675;51.538;6.728;2023-09-12T09:31:59;7.53;;;5.07;;
19084;SDS011;9675;51.538;6.728;2023-09-12T09:34:27;8.57;;;5.00;;
19084;SDS011;9675;51.538;6.728;2023-09-12T09:36:56;8.10;;;4.73;;
19084;SDS011;9675;51.538;6.728;2023-09-12T09:39:24;5.93;;;3.73;;
19084;SDS011;9675;51.538;6.728;2023-09-12T09:41:55;7.00;;;4.07;;
19084;SDS011;9675;51.538;6.728;2023-09-12T09:44:25;8.60;;;4.30;;
19084;SDS011;9675;51.538;6.728;2023-09-12T09:46:54;5.37;;;3.10;;
19084;SDS011;9675;51.538;6.728;2023-09-12T09:49:25;4.50;;;3.07;;
19084;SDS011;9675;51.538;6.728;2023-09-12T09:51:52;6.07;;;3.00;;
19084;SDS011;9675;51.538;6.728;2023-09-12T09:54:23;5.73;;;3.30;;
19084;SDS011;9675;51.538;6.728;2023-09-12T09:56:52;7.10;;;3.67;;
19084;SDS011;9675;51.538;6.728;2023-09-12T09:59:23;4.03;;;2.77;;
19084;SDS011;9675;51.538;6.728;2023-09-12T10:01:54;5.60;;;3.23;;
19084;SDS011;9675;51.538;6.728;2023-09-12T10:04:23;4.07;;;3.20;;
19084;SDS011;9675;51.538;6.728;2023-09-12T10:06:55;3.37;;;2.97;;
19084;SDS011;9675;51.538;6.728;2023-09-12T10:09:25;4.93;;;3.07;;
19084;SDS011;9675;51.538;6.728;2023-09-12T10:11:54;5.10;;;3.50;;
19084;SDS011;9675;51.538;6.728;2023-09-12T10:14:25;6.40;;;3.10;;
19084;SDS011;9675;51.538;6.728;2023-09-12T10:16:57;4.93;;;3.30;;
19084;SDS011;9675;51.538;6.728;2023-09-12T10:19:30;3.83;;;2.80;;
19084;SDS011;9675;51.538;6.728;2023-09-12T10:22:06;5.00;;;3.10;;
19084;SDS011;9675;51.538;6.728;2023-09-12T10:24:38;6.03;;;3.23;;
19084;SDS011;9675;51.538;6.728;2023-09-12T10:27:08;4.07;;;3.07;;
19084;SDS011;9675;51.538;6.728;2023-09-12T10:29:40;5.30;;;3.10;;
19084;SDS011;9675;51.538;6.728;2023-09-12T10:32:07;7.00;;;3.20;;
19084;SDS011;9675;51.538;6.728;2023-09-12T10:34:36;9.23;;;2.97;;
19084;SDS011;9675;51.538;6.728;2023-09-12T10:37:08;7.27;;;3.50;;
19084;SDS011;9675;51.538;6.728;2023-09-12T10:39:35;3.67;;;2.83;;
19084;SDS011;9675;51.538;6.728;2023-09-12T10:42:04;5.87;;;3.00;;
19084;SDS011;9675;51.538;6.728;2023-09-12T10:44:31;4.47;;;2.67;;
19084;SDS011;9675;51.538;6.728;2023-09-12T10:47:02;5.13;;;3.00;;
19084;SDS011;9675;51.538;6.728;2023-09-12T10:49:31;4.97;;;2.90;;
19084;SDS011;9675;51.538;6.728;2023-09-12T10:51:59;5.07;;;3.13;;
19084;SDS011;9675;51.538;6.728;2023-09-12T10:54:35;4.20;;;2.50;;
19084;SDS011;9675;51.538;6.728;2023-09-12T10:57:04;3.27;;;2.77;;
19084;SDS011;9675;51.538;6.728;2023-09-12T10:59:32;3.93;;;2.67;;
19084;SDS011;9675;51.538;6.728;2023-09-12T11:04:56;4.33;;;2.97;;
19084;SDS011;9675;51.538;6.728;2023-09-12T11:07:29;5.30;;;3.50;;
19084;SDS011;9675;51.538;6.728;2023-09-12T11:10:15;4.73;;;3.10;;
19084;SDS011;9675;51.538;6.728;2023-09-12T11:12:44;4.67;;;3.07;;
19084;SDS011;9675;51.538;6.728;2023-09-12T11:15:14;7.17;;;3.47;;
19084;SDS011;9675;51.538;6.728;2023-09-12T11:17:43;4.17;;;2.83;;
19084;SDS011;9675;51.538;6.728;2023-09-12T11:20:12;8.87;;;3.77;;
19084;SDS011;9675;51.538;6.728;2023-09-12T11:22:41;5.40;;;3.50;;
19084;SDS011;9675;51.538;6.728;2023-09-12T11:25:18;4.50;;;3.53;;
19084;SDS011;9675;51.538;6.728;2023-09-12T11:28:04;7.07;;;3.67;;
19084;SDS011;9675;51.538;6.728;2023-09-12T11:30:31;10.13;;;3.50;;
19084;SDS011;9675;51.538;6.728;2023-09-12T11:33:02;8.50;;;4.70;;
19084;SDS011;9675;51.538;6.728;2023-09-12T11:35:35;8.67;;;4.50;;
19084;SDS011;9675;51.538;6.728;2023-09-12T11:38:09;6.10;;;4.00;;
19084;SDS011;9675;51.538;6.728;2023-09-12T11:40:42;5.40;;;3.73;;
19084;SDS011;9675;51.538;6.728;2023-09-12T11:43:20;6.33;;;4.07;;
19084;SDS011;9675;51.538;6.728;2023-09-12T11:45:50;8.83;;;5.40;;
19084;SDS011;9675;51.538;6.728;2023-09-12T11:48:20;7.27;;;4.77;;
19084;SDS011;9675;51.538;6.728;2023-09-12T11:50:51;10.30;;;4.00;;
19084;SDS011;9675;51.538;6.728;2023-09-12T11:53:20;5.70;;;3.70;;
19084;SDS011;9675;51.538;6.728;2023-09-12T11:55:51;4.80;;;3.13;;
19084;SDS011;9675;51.538;6.728;2023-09-12T11:58:21;7.17;;;3.90;;
19084;SDS011;9675;51.538;6.728;2023-09-12T12:00:48;5.67;;;3.60;;
19084;SDS011;9675;51.538;6.728;2023-09-12T12:03:18;8.43;;;4.23;;
19084;SDS011;9675;51.538;6.728;2023-09-12T12:05:48;6.70;;;4.37;;
19084;SDS011;9675;51.538;6.728;2023-09-12T12:08:17;5.70;;;3.57;;
19084;SDS011;9675;51.538;6.728;2023-09-12T12:10:48;5.73;;;3.53;;
19084;SDS011;9675;51.538;6.728;2023-09-12T12:13:16;7.03;;;3.37;;
19084;SDS011;9675;51.538;6.728;2023-09-12T12:15:44;5.20;;;3.40;;
19084;SDS011;9675;51.538;6.728;2023-09-12T12:18:11;5.73;;;3.30;;
19084;SDS011;9675;51.538;6.728;2023-09-12T12:20:39;6.00;;;4.17;;
19084;SDS011;9675;51.538;6.728;2023-09-12T12:23:07;4.17;;;2.97;;
19084;SDS011;9675;51.538;6.728;2023-09-12T12:25:35;5.00;;;3.30;;
19084;SDS011;9675;51.538;6.728;2023-09-12T12:28:02;7.33;;;3.70;;
19084;SDS011;9675;51.538;6.728;2023-09-12T12:30:30;5.57;;;3.30;;
19084;SDS011;9675;51.538;6.728;2023-09-12T12:33:00;6.60;;;3.20;;
19084;SDS011;9675;51.538;6.728;2023-09-12T12:35:32;5.57;;;3.63;;
19084;SDS011;9675;51.538;6.728;2023-09-12T12:38:03;6.97;;;3.93;;
19084;SDS011;9675;51.538;6.728;2023-09-12T12:40:30;4.50;;;2.97;;
19084;SDS011;9675;51.538;6.728;2023-09-12T12:42:57;5.33;;;3.17;;
19084;SDS011;9675;51.538;6.728;2023-09-12T12:45:26;5.00;;;3.60;;
19084;SDS011;9675;51.538;6.728;2023-09-12T12:47:57;6.67;;;4.17;;
19084;SDS011;9675;51.538;6.728;2023-09-12T12:50:26;8.97;;;4.10;;
19084;SDS011;9675;51.538;6.728;2023-09-12T12:52:53;6.40;;;3.67;;
19084;SDS011;9675;51.538;6.728;2023-09-12T12:55:22;5.07;;;3.57;;
19084;SDS011;9675;51.538;6.728;2023-09-12T12:57:52;6.80;;;3.53;;
19084;SDS011;9675;51.538;6.728;2023-09-12T13:00:19;4.17;;;3.00;;
19084;SDS011;9675;51.538;6.728;2023-09-12T13:02:48;4.57;;;3.17;;
19084;SDS011;9675;51.538;6.728;2023-09-12T13:05:21;5.30;;;3.40;;
19084;SDS011;9675;51.538;6.728;2023-09-12T13:07:52;5.77;;;3.63;;
19084;SDS011;9675;51.538;6.728;2023-09-12T13:10:19;4.90;;;3.40;;
19084;SDS011;9675;51.538;6.728;2023-09-12T13:12:49;3.60;;;3.03;;
19084;SDS011;9675;51.538;6.728;2023-09-12T13:15:17;5.23;;;3.00;;
19084;SDS011;9675;51.538;6.728;2023-09-12T13:17:44;5.37;;;3.63;;
19084;SDS011;9675;51.538;6.728;2023-09-12T13:20:11;4.50;;;3.40;;
19084;SDS011;9675;51.538;6.728;2023-09-12T13:22:38;5.70;;;3.63;;
19084;SDS011;9675;51.538;6.728;2023-09-12T13:25:08;4.03;;;3.20;;
19084;SDS011;9675;51.538;6.728;2023-09-12T13:27:37;4.67;;;3.63;;
19084;SDS011;9675;51.538;6.728;2023-09-12T13:30:05;5.03;;;3.37;;
19084;SDS011;9675;51.538;6.728;2023-09-12T13:32:33;4.50;;;3.20;;
19084;SDS011;9675;51.538;6.728;2023-09-12T13:35:00;6.57;;;3.10;;
19084;SDS011;9675;51.538;6.728;2023-09-12T13:37:27;8.00;;;3.53;;
19084;SDS011;9675;51.538;6.728;2023-09-12T13:39:55;4.93;;;3.40;;
19084;SDS011;9675;51.538;6.728;2023-09-12T13:42:23;4.47;;;3.50;;
19084;SDS011;9675;51.538;6.728;2023-09-12T13:44:57;4.93;;;3.50;;
19084;SDS011;9675;51.538;6.728;2023-09-12T13:47:24;4.63;;;3.47;;
19084;SDS011;9675;51.538;6.728;2023-09-12T13:49:51;5.13;;;3.60;;
19084;SDS011;9675;51.538;6.728;2023-09-12T13:52:19;4.33;;;3.17;;
19084;SDS011;9675;51.538;6.728;2023-09-12T13:54:46;5.30;;;3.27;;
19084;SDS011;9675;51.538;6.728;2023-09-12T13:57:13;5.23;;;3.50;;
19084;SDS011;9675;51.538;6.728;2023-09-12T13:59:42;6.37;;;3.30;;
19084;SDS011;9675;51.538;6.728;2023-09-12T14:02:10;5.70;;;3.63;;
19084;SDS011;9675;51.538;6.728;2023-09-12T14:04:37;6.47;;;3.07;;
19084;SDS011;9675;51.538;6.728;2023-09-12T14:07:05;5.17;;;3.57;;
19084;SDS011;9675;51.538;6.728;2023-09-12T14:09:32;5.83;;;3.00;;
19084;SDS011;9675;51.538;6.728;2023-09-12T14:11:59;4.80;;;3.10;;
19084;SDS011;9675;51.538;6.728;2023-09-12T14:14:26;4.30;;;2.67;;
19084;SDS011;9675;51.538;6.728;2023-09-12T14:16:53;5.00;;;3.23;;
19084;SDS011;9675;51.538;6.728;2023-09-12T14:19:21;7.37;;;3.10;;
19084;SDS011;9675;51.538;6.728;2023-09-12T14:21:51;4.37;;;3.13;;
19084;SDS011;9675;51.538;6.728;2023-09-12T14:24:18;6.83;;;3.50;;
19084;SDS011;9675;51.538;6.728;2023-09-12T14:26:45;4.33;;;3.30;;
19084;SDS011;9675;51.538;6.728;2023-09-12T14:29:12;4.47;;;3.03;;
19084;SDS011;9675;51.538;6.728;2023-09-12T14:31:39;6.73;;;3.47;;
19084;SDS011;9675;51.538;6.728;2023-09-12T14:34:14;8.53;;;3.80;;
19084;SDS011;9675;51.538;6.728;2023-09-12T14:36:42;4.13;;;2.90;;
19084;SDS011;9675;51.538;6.728;2023-09-12T14:39:11;6.07;;;3.30;;
19084;SDS011;9675;51.538;6.728;2023-09-12T14:41:38;6.07;;;3.93;;
19084;SDS011;9675;51.538;6.728;2023-09-12T14:44:05;6.03;;;3.10;;
19084;SDS011;9675;51.538;6.728;2023-09-12T14:46:32;4.77;;;3.03;;
19084;SDS011;9675;51.538;6.728;2023-09-12T14:48:59;5.67;;;3.13;;
19084;SDS011;9675;51.538;6.728;2023-09-12T14:51:28;4.73;;;3.03;;
19084;SDS011;9675;51.538;6.728;2023-09-12T14:53:57;3.40;;;2.63;;
19084;SDS011;9675;51.538;6.728;2023-09-12T14:56:24;4.23;;;2.63;;
19084;SDS011;9675;51.538;6.728;2023-09-12T14:58:51;4.90;;;2.57;;
19084;SDS011;9675;51.538;6.728;2023-09-12T15:01:18;2.87;;;2.23;;
19084;SDS011;9675;51.538;6.728;2023-09-12T15:03:45;6.87;;;2.90;;
19084;SDS011;9675;51.538;6.728;2023-09-12T15:06:11;3.77;;;2.33;;
19084;SDS011;9675;51.538;6.728;2023-09-12T15:08:39;4.83;;;2.67;;
19084;SDS011;9675;51.538;6.728;2023-09-12T15:11:07;2.80;;;2.30;;